createdAt,value
2023-05-17T00:00:11.464Z,22.33
2023-05-17T00:02:38.687Z,21.81
2023-05-17T00:05:06.223Z,21.65
2023-05-17T00:07:33.470Z,21.59
2023-05-17T00:10:00.569Z,21.55
2023-05-17T00:12:27.901Z,21.54
2023-05-17T00:14:55.106Z,21.53
2023-05-17T00:17:22.201Z,21.53
2023-05-17T00:19:49.445Z,21.51
2023-05-17T00:22:16.622Z,21.51
2023-05-17T00:24:43.821Z,21.49
2023-05-17T00:27:10.927Z,21.49
2023-05-17T00:29:38.041Z,21.49
2023-05-17T00:32:05.492Z,21.48
2023-05-17T00:34:32.870Z,21.46
2023-05-17T00:36:59.956Z,21.43
2023-05-17T00:39:27.188Z,21.41
2023-05-17T00:41:54.306Z,21.39
2023-05-17T00:44:21.542Z,21.34
2023-05-17T00:46:50.689Z,21.29
2023-05-17T00:49:17.975Z,21.26
2023-05-17T00:51:45.256Z,21.29
2023-05-17T00:54:12.621Z,21.33
2023-05-17T00:56:39.863Z,21.34
2023-05-17T00:59:07.119Z,21.59
2023-05-17T01:01:35.830Z,21.75
2023-05-17T01:04:03.222Z,21.53
2023-05-17T01:06:31.057Z,21.77
2023-05-17T01:08:58.371Z,21.82
2023-05-17T01:11:44.899Z,21.80
2023-05-17T01:14:21.564Z,21.78
2023-05-17T01:16:59.674Z,21.77
2023-05-17T01:19:27.001Z,21.75
2023-05-17T01:22:11.181Z,21.72
2023-05-17T01:24:50.809Z,21.74
2023-05-17T01:27:18.058Z,21.72
2023-05-17T01:29:45.263Z,21.68
2023-05-17T01:32:13.372Z,21.65
2023-05-17T01:34:40.634Z,21.68
2023-05-17T01:37:07.852Z,21.67
2023-05-17T01:39:36.466Z,21.64
2023-05-17T01:42:08.304Z,21.29
2023-05-17T01:44:41.327Z,21.28
2023-05-17T01:47:31.060Z,21.02
2023-05-17T01:49:58.526Z,21.11
2023-05-17T01:52:32.239Z,21.29
2023-05-17T01:55:09.272Z,21.29
2023-05-17T01:57:37.962Z,21.27
2023-05-17T02:00:07.030Z,21.23
2023-05-17T02:02:41.754Z,21.16
2023-05-17T02:05:09.388Z,21.23
2023-05-17T02:07:40.226Z,21.26
2023-05-17T02:10:07.826Z,21.29
2023-05-17T02:12:36.621Z,21.32
2023-05-17T02:15:04.132Z,21.29
2023-05-17T02:17:36.686Z,20.80
2023-05-17T02:20:07.853Z,21.15
2023-05-17T02:22:35.924Z,21.28
2023-05-17T02:25:03.366Z,21.22
2023-05-17T02:27:31.703Z,21.14
2023-05-17T02:30:03.951Z,21.12
2023-05-17T02:32:32.723Z,21.15
2023-05-17T02:35:00.156Z,21.17
2023-05-17T02:37:27.489Z,21.24
2023-05-17T02:39:54.802Z,21.38
2023-05-17T02:42:22.018Z,21.44
2023-05-17T02:44:53.251Z,21.42
2023-05-17T02:47:23.852Z,21.49
2023-05-17T02:49:51.070Z,21.54
2023-05-17T02:52:18.446Z,21.59
2023-05-17T02:54:45.814Z,21.65
2023-05-17T02:57:13.257Z,21.66
2023-05-17T02:59:40.625Z,21.64
2023-05-17T03:02:07.951Z,21.66
2023-05-17T03:04:35.331Z,21.65
2023-05-17T03:07:05.829Z,21.68
2023-05-17T03:09:37.902Z,21.71
2023-05-17T03:12:05.953Z,21.73
2023-05-17T03:14:35.014Z,21.88
2023-05-17T03:17:03.048Z,21.86
2023-05-17T03:19:31.437Z,21.95
2023-05-17T03:21:59.277Z,22.04
2023-05-17T03:24:26.676Z,22.14
2023-05-17T03:26:54.023Z,22.20
2023-05-17T03:29:22.792Z,22.22
2023-05-17T03:31:50.673Z,22.26
2023-05-17T03:34:17.947Z,22.35
2023-05-17T03:36:45.353Z,22.44
2023-05-17T03:39:12.675Z,22.55
2023-05-17T03:41:42.502Z,22.66
2023-05-17T03:44:10.944Z,22.76
2023-05-17T03:46:41.401Z,22.87
2023-05-17T03:49:09.695Z,23.11
2023-05-17T03:51:38.298Z,23.47
2023-05-17T03:54:05.712Z,23.92
2023-05-17T03:56:33.077Z,24.56
2023-05-17T03:59:00.717Z,25.03
2023-05-17T04:01:28.020Z,25.25
2023-05-17T04:03:55.292Z,25.38
2023-05-17T04:06:23.439Z,25.48
2023-05-17T04:08:51.674Z,25.63
2023-05-17T04:11:24.014Z,25.81
2023-05-17T04:13:51.958Z,26.02
2023-05-17T04:16:19.609Z,26.22
2023-05-17T04:18:47.937Z,26.49
2023-05-17T04:21:15.421Z,26.94
2023-05-17T04:23:42.839Z,27.35
2023-05-17T04:26:10.920Z,27.82
2023-05-17T04:28:39.724Z,27.73
2023-05-17T04:31:08.730Z,27.74
2023-05-17T04:33:37.034Z,27.65
2023-05-17T04:36:06.719Z,27.54
2023-05-17T04:38:34.693Z,27.52
2023-05-17T04:41:03.535Z,27.46
2023-05-17T04:43:33.997Z,27.45
2023-05-17T04:46:06.242Z,27.84
2023-05-17T04:48:33.841Z,28.43
2023-05-17T04:51:02.675Z,28.87
2023-05-17T04:53:30.099Z,29.46
2023-05-17T04:55:58.278Z,29.95
2023-05-17T04:58:25.880Z,30.17
2023-05-17T05:00:56.469Z,30.25
2023-05-17T05:03:24.279Z,30.30
2023-05-17T05:05:51.938Z,30.29
2023-05-17T05:08:19.152Z,30.61
2023-05-17T05:10:46.609Z,30.63
2023-05-17T05:13:14.333Z,30.68
2023-05-17T05:15:41.820Z,30.75
2023-05-17T05:18:09.116Z,30.99
2023-05-17T05:20:37.511Z,30.95
2023-05-17T05:23:06.415Z,31.53
2023-05-17T05:25:34.555Z,31.59
2023-05-17T05:28:02.319Z,31.50
2023-05-17T05:30:29.956Z,31.07
2023-05-17T05:32:57.769Z,31.04
2023-05-17T05:35:30.667Z,31.12
2023-05-17T05:37:58.941Z,31.52
2023-05-17T05:40:26.518Z,31.70
2023-05-17T05:42:54.380Z,31.81
2023-05-17T05:45:22.367Z,31.69
2023-05-17T05:47:51.201Z,32.00
2023-05-17T05:50:19.116Z,32.19
2023-05-17T05:52:48.810Z,32.27
2023-05-17T05:55:36.833Z,32.65
2023-05-17T05:58:04.385Z,32.56
2023-05-17T06:00:52.715Z,32.95
2023-05-17T06:03:30.203Z,32.47
2023-05-17T06:06:00.472Z,32.53
2023-05-17T06:08:48.051Z,32.46
2023-05-17T06:11:15.472Z,32.92
2023-05-17T06:13:43.558Z,32.48
2023-05-17T06:16:11.589Z,32.54
2023-05-17T06:18:39.055Z,32.70
2023-05-17T06:21:06.649Z,32.77
2023-05-17T06:23:35.618Z,33.07
2023-05-17T06:26:02.990Z,33.55
2023-05-17T06:28:30.131Z,33.52
2023-05-17T06:30:57.239Z,33.79
2023-05-17T06:33:24.498Z,34.43
2023-05-17T06:35:56.592Z,34.87
2023-05-17T06:38:25.062Z,34.82
2023-05-17T06:40:55.568Z,34.75
2023-05-17T06:43:22.914Z,34.92
2023-05-17T06:45:53.479Z,35.08
2023-05-17T06:48:21.322Z,35.28
2023-05-17T06:50:49.310Z,35.26
2023-05-17T06:53:16.420Z,34.82
2023-05-17T06:55:43.616Z,35.15
2023-05-17T06:58:11.003Z,35.14
2023-05-17T07:00:38.495Z,34.90
2023-05-17T07:03:07.269Z,34.46
2023-05-17T07:05:35.007Z,34.18
2023-05-17T07:08:02.386Z,33.99
2023-05-17T07:10:29.810Z,33.93
2023-05-17T07:12:57.217Z,34.03
2023-05-17T07:15:24.637Z,34.13
2023-05-17T07:17:52.438Z,34.32
2023-05-17T07:20:20.602Z,34.35
2023-05-17T07:22:49.683Z,34.48
2023-05-17T07:25:22.373Z,34.53
2023-05-17T07:27:51.279Z,34.69
2023-05-17T07:30:19.125Z,34.67
2023-05-17T07:32:46.683Z,34.47
2023-05-17T07:35:21.836Z,34.66
2023-05-17T07:37:50.706Z,34.74
2023-05-17T07:40:28.534Z,34.93
2023-05-17T07:42:57.783Z,35.06
2023-05-17T07:45:55.098Z,35.09
2023-05-17T07:48:24.179Z,35.05
2023-05-17T07:51:07.079Z,35.09
2023-05-17T07:53:43.349Z,35.10
2023-05-17T08:00:18.937Z,34.50
2023-05-17T08:03:22.270Z,34.86
2023-05-17T08:06:10.837Z,34.71
2023-05-17T08:08:54.301Z,34.51
2023-05-17T08:11:24.378Z,34.30
2023-05-17T08:13:52.809Z,34.32
2023-05-17T08:16:20.429Z,33.97
2023-05-17T08:18:48.966Z,34.22
2023-05-17T08:21:16.424Z,34.49
2023-05-17T08:23:44.096Z,34.34
2023-05-17T08:26:13.359Z,34.29
2023-05-17T08:28:41.164Z,34.38
2023-05-17T08:31:08.587Z,34.41
2023-05-17T08:33:36.811Z,34.40
2023-05-17T08:36:11.135Z,34.51
2023-05-17T08:38:38.642Z,34.51
2023-05-17T08:41:05.996Z,34.73
2023-05-17T08:43:33.419Z,34.58
2023-05-17T08:46:00.786Z,34.59
2023-05-17T08:48:31.633Z,34.76
2023-05-17T08:51:00.495Z,34.65
2023-05-17T08:53:28.065Z,34.50
2023-05-17T08:56:00.999Z,34.10
2023-05-17T08:58:35.977Z,34.06
2023-05-17T09:01:10.109Z,34.15
2023-05-17T09:03:38.018Z,34.59
2023-05-17T09:06:05.943Z,34.62
2023-05-17T09:08:34.146Z,34.25
2023-05-17T09:11:01.394Z,34.18
2023-05-17T09:13:28.660Z,34.19
2023-05-17T09:15:56.286Z,34.25
2023-05-17T09:18:33.318Z,34.00
2023-05-17T09:21:05.494Z,33.38
2023-05-17T09:23:36.161Z,32.57
2023-05-17T09:26:08.734Z,31.67
2023-05-17T09:28:42.652Z,32.07
2023-05-17T09:31:13.112Z,32.22
2023-05-17T09:33:48.096Z,32.38
2023-05-17T09:36:19.212Z,32.32
2023-05-17T09:38:56.645Z,32.20
2023-05-17T09:41:27.088Z,32.35
2023-05-17T09:43:55.311Z,32.34
2023-05-17T09:46:22.673Z,32.10
2023-05-17T09:48:54.166Z,32.10
2023-05-17T09:51:51.857Z,32.00
2023-05-17T09:54:19.567Z,32.02
2023-05-17T09:56:53.580Z,31.83
2023-05-17T09:59:21.595Z,31.84
2023-05-17T10:01:50.524Z,31.82
2023-05-17T10:04:20.830Z,30.77
2023-05-17T10:06:51.689Z,30.86
2023-05-17T10:09:22.886Z,30.71
2023-05-17T10:11:50.987Z,30.34
2023-05-17T10:14:23.396Z,30.22
2023-05-17T10:16:51.290Z,30.13
2023-05-17T10:19:20.830Z,29.53
2023-05-17T10:21:48.955Z,29.50
2023-05-17T10:24:16.715Z,29.07
2023-05-17T10:26:44.140Z,28.61
2023-05-17T10:29:11.507Z,28.44
2023-05-17T10:31:38.926Z,28.55
2023-05-17T10:34:07.030Z,28.57
2023-05-17T10:36:34.557Z,28.44
2023-05-17T10:39:02.576Z,28.07
2023-05-17T10:41:31.701Z,27.99
2023-05-17T10:43:59.076Z,27.82
2023-05-17T10:46:26.408Z,27.76
2023-05-17T10:48:54.273Z,27.72
2023-05-17T10:51:25.382Z,27.92
2023-05-17T10:54:12.931Z,27.42
2023-05-17T10:56:47.892Z,27.51
2023-05-17T10:59:18.856Z,27.68
2023-05-17T11:02:05.515Z,27.56
2023-05-17T11:04:34.752Z,27.48
2023-05-17T11:07:29.866Z,27.57
2023-05-17T11:10:00.856Z,27.55
2023-05-17T11:12:30.700Z,27.58
2023-05-17T11:14:59.169Z,27.52
2023-05-17T11:17:47.257Z,27.48
2023-05-17T11:20:16.457Z,27.66
2023-05-17T11:22:44.457Z,27.82
2023-05-17T11:25:12.807Z,27.86
2023-05-17T11:27:44.119Z,27.94
2023-05-17T11:30:30.038Z,27.84
2023-05-17T11:33:01.749Z,27.56
2023-05-17T11:35:31.839Z,27.68
2023-05-17T11:38:18.040Z,27.85
2023-05-17T11:40:46.044Z,27.92
2023-05-17T11:43:13.521Z,28.07
2023-05-17T11:45:53.907Z,28.19
2023-05-17T11:48:22.802Z,28.14
2023-05-17T11:50:51.654Z,27.97
2023-05-17T11:53:30.702Z,27.78
2023-05-17T11:55:58.164Z,27.82
2023-05-17T11:58:25.999Z,27.81
2023-05-17T12:00:54.547Z,27.80
2023-05-17T12:03:21.897Z,28.02
2023-05-17T12:05:50.296Z,28.04
2023-05-17T12:08:19.224Z,27.74
2023-05-17T12:10:47.943Z,27.61
2023-05-17T12:13:15.408Z,27.93
2023-05-17T12:15:44.972Z,28.02
2023-05-17T12:18:12.684Z,28.08
2023-05-17T12:20:40.280Z,27.97
2023-05-17T12:23:07.712Z,27.97
2023-05-17T12:25:35.301Z,27.92
2023-05-17T12:28:23.091Z,27.57
2023-05-17T12:30:54.334Z,27.58
2023-05-17T12:33:22.115Z,27.52
2023-05-17T12:35:49.760Z,27.43
2023-05-17T12:38:17.949Z,27.27
2023-05-17T12:40:45.975Z,27.43
2023-05-17T12:43:13.318Z,27.55
2023-05-17T12:45:41.964Z,27.55
2023-05-17T12:48:09.610Z,27.73
2023-05-17T12:50:37.308Z,27.82
2023-05-17T12:53:10.217Z,27.89
2023-05-17T12:55:38.283Z,27.71
2023-05-17T12:58:05.824Z,27.41
2023-05-17T13:00:33.137Z,27.58
2023-05-17T13:03:01.614Z,27.66
2023-05-17T13:05:29.179Z,27.62
2023-05-17T13:07:56.586Z,27.61
2023-05-17T13:10:28.096Z,27.49
2023-05-17T13:12:57.542Z,27.46
2023-05-17T13:15:29.254Z,27.49
2023-05-17T13:17:56.869Z,27.62
2023-05-17T13:20:24.646Z,27.59
2023-05-17T13:22:52.116Z,27.57
2023-05-17T13:25:19.850Z,27.58
2023-05-17T13:27:49.644Z,27.64
2023-05-17T13:30:17.028Z,27.57
2023-05-17T13:32:44.771Z,27.46
2023-05-17T13:35:12.589Z,27.50
2023-05-17T13:37:40.174Z,27.56
2023-05-17T13:40:09.067Z,27.56
2023-05-17T13:42:37.440Z,27.45
2023-05-17T13:45:04.999Z,27.52
2023-05-17T13:47:33.448Z,27.50
2023-05-17T13:50:01.527Z,27.50
2023-05-17T13:52:29.611Z,27.58
2023-05-17T13:54:57.324Z,27.60
2023-05-17T13:57:25.084Z,27.59
2023-05-17T13:59:52.500Z,27.60
2023-05-17T14:02:19.925Z,27.59
2023-05-17T14:04:47.440Z,27.56
2023-05-17T14:07:30.644Z,27.40
2023-05-17T14:09:59.002Z,27.33
2023-05-17T14:12:26.644Z,27.31
2023-05-17T14:14:55.443Z,27.38
2023-05-17T14:17:23.598Z,27.27
2023-05-17T14:19:53.740Z,27.25
2023-05-17T14:22:43.563Z,27.31
2023-05-17T14:25:12.611Z,27.26
2023-05-17T14:27:43.178Z,27.28
2023-05-17T14:30:39.644Z,27.35
2023-05-17T14:36:52.183Z,27.26
2023-05-17T14:39:22.722Z,27.28
2023-05-17T14:41:50.989Z,27.19
2023-05-17T14:44:18.550Z,27.23
2023-05-17T14:46:46.214Z,27.15
2023-05-17T14:49:15.537Z,27.08
2023-05-17T14:51:43.524Z,27.04
2023-05-17T14:54:13.422Z,27.00
2023-05-17T14:56:43.537Z,26.99
2023-05-17T14:59:11.067Z,26.88
2023-05-17T15:01:38.394Z,26.92
2023-05-17T15:04:05.752Z,27.00
2023-05-17T15:06:33.318Z,26.99
2023-05-17T15:09:02.473Z,27.02
2023-05-17T15:11:29.928Z,27.00
2023-05-17T15:13:57.704Z,26.95
2023-05-17T15:16:25.105Z,26.87
2023-05-17T15:18:53.370Z,26.96
2023-05-17T15:21:22.231Z,26.96
2023-05-17T15:23:50.988Z,26.89
2023-05-17T15:26:18.253Z,26.89
2023-05-17T15:28:45.588Z,26.86
2023-05-17T15:31:13.023Z,26.80
2023-05-17T15:33:42.751Z,26.75
2023-05-17T15:36:11.230Z,26.77
2023-05-17T15:38:39.878Z,26.72
2023-05-17T15:41:08.518Z,26.67
2023-05-17T15:43:36.322Z,26.63
2023-05-17T15:46:03.805Z,26.57
2023-05-17T15:48:31.358Z,26.54
2023-05-17T15:50:58.928Z,26.47
2023-05-17T15:53:26.640Z,26.44
2023-05-17T15:55:54.321Z,26.40
2023-05-17T15:58:22.132Z,26.30
2023-05-17T16:00:49.451Z,26.32
2023-05-17T16:03:16.870Z,26.26
2023-05-17T16:05:44.171Z,26.16
2023-05-17T16:08:12.635Z,26.11
2023-05-17T16:10:40.004Z,26.06
2023-05-17T16:13:08.554Z,25.99
2023-05-17T16:15:36.955Z,25.67
2023-05-17T16:18:04.455Z,25.76
2023-05-17T16:20:32.637Z,25.87
2023-05-17T16:23:01.057Z,25.75
2023-05-17T16:25:29.832Z,25.55
2023-05-17T16:28:01.906Z,25.56
2023-05-17T16:30:31.917Z,25.53
2023-05-17T16:32:59.356Z,25.50
2023-05-17T16:35:29.462Z,25.45
2023-05-17T16:37:57.232Z,25.41
2023-05-17T16:40:24.877Z,25.31
2023-05-17T16:42:52.118Z,25.26
2023-05-17T16:45:19.456Z,25.02
2023-05-17T16:47:46.897Z,25.01
2023-05-17T16:50:14.173Z,25.06
2023-05-17T16:52:41.392Z,25.02
2023-05-17T16:55:09.895Z,24.98
2023-05-17T16:57:37.209Z,24.89
2023-05-17T17:00:04.733Z,24.63
2023-05-17T17:02:32.146Z,24.66
2023-05-17T17:04:59.501Z,24.67
2023-05-17T17:07:26.766Z,24.57
2023-05-17T17:09:54.067Z,24.51
2023-05-17T17:12:25.456Z,24.48
2023-05-17T17:14:57.737Z,24.47
2023-05-17T17:17:25.152Z,24.36
2023-05-17T17:19:53.324Z,24.32
2023-05-17T17:22:20.575Z,24.29
2023-05-17T17:24:48.420Z,24.24
2023-05-17T17:27:15.760Z,24.16
2023-05-17T17:29:43.250Z,24.15
2023-05-17T17:32:10.576Z,24.12
2023-05-17T17:34:39.099Z,24.08
2023-05-17T17:37:06.380Z,23.97
2023-05-17T17:39:33.663Z,23.91
2023-05-17T17:42:01.783Z,23.88
2023-05-17T17:44:29.189Z,23.86
2023-05-17T17:46:56.724Z,23.84
2023-05-17T17:49:24.029Z,23.81
2023-05-17T17:51:51.638Z,23.78
2023-05-17T17:54:18.934Z,23.71
2023-05-17T17:56:46.315Z,23.70
2023-05-17T17:59:13.783Z,23.65
2023-05-17T18:01:41.133Z,23.61
2023-05-17T18:04:09.735Z,23.63
2023-05-17T18:06:38.287Z,23.55
2023-05-17T18:09:05.911Z,23.49
2023-05-17T18:11:33.298Z,23.46
2023-05-17T18:14:02.719Z,23.45
2023-05-17T18:16:31.042Z,23.42
2023-05-17T18:18:58.611Z,23.38
2023-05-17T18:21:26.009Z,23.35
2023-05-17T18:23:53.419Z,23.32
2023-05-17T18:26:21.705Z,23.28
2023-05-17T18:28:49.209Z,23.22
2023-05-17T18:31:18.972Z,23.21
2023-05-17T18:33:46.576Z,23.20
2023-05-17T18:36:14.093Z,23.18
2023-05-17T18:38:41.651Z,23.13
2023-05-17T18:41:09.194Z,23.10
2023-05-17T18:43:36.628Z,23.10
2023-05-17T18:46:04.150Z,23.06
2023-05-17T18:48:36.271Z,23.06
2023-05-17T18:51:03.540Z,23.01
2023-05-17T18:53:30.856Z,22.95
2023-05-17T18:56:01.716Z,22.88
2023-05-17T18:58:29.379Z,22.78
2023-05-17T19:00:56.766Z,22.70
2023-05-17T19:03:24.157Z,22.64
2023-05-17T19:05:51.305Z,22.58
2023-05-17T19:08:18.680Z,22.49
2023-05-17T19:10:45.897Z,22.46
2023-05-17T19:13:14.061Z,22.42
2023-05-17T19:15:41.929Z,22.35
2023-05-17T19:18:09.121Z,22.29
2023-05-17T19:20:36.230Z,22.22
2023-05-17T19:23:03.880Z,22.08
2023-05-17T19:25:31.908Z,22.07
2023-05-17T19:27:59.565Z,22.01
2023-05-17T19:30:27.052Z,21.94
2023-05-17T19:32:54.481Z,21.90
2023-05-17T19:35:21.822Z,21.87
2023-05-17T19:37:48.954Z,21.83
2023-05-17T19:40:19.037Z,21.79
2023-05-17T19:42:47.183Z,21.72
2023-05-17T19:45:14.799Z,21.67
2023-05-17T19:47:42.298Z,21.65
2023-05-17T19:50:09.792Z,21.63
2023-05-17T19:52:37.020Z,21.61
2023-05-17T19:55:04.519Z,21.59
2023-05-17T19:57:32.244Z,21.51
2023-05-17T19:59:59.302Z,21.47
2023-05-17T20:02:26.678Z,21.39
2023-05-17T20:04:54.402Z,21.33
2023-05-17T20:07:26.087Z,21.28
2023-05-17T20:09:53.784Z,21.24
2023-05-17T20:12:21.141Z,21.21
2023-05-17T20:14:48.376Z,21.17
2023-05-17T20:17:15.525Z,21.10
2023-05-17T20:19:42.752Z,21.03
2023-05-17T20:22:10.007Z,20.97
2023-05-17T20:24:37.362Z,20.94
2023-05-17T20:27:04.532Z,20.89
2023-05-17T20:29:32.128Z,20.84
2023-05-17T20:31:59.352Z,20.78
2023-05-17T20:34:29.517Z,20.74
2023-05-17T20:36:56.984Z,20.68
2023-05-17T20:39:28.187Z,20.63
2023-05-17T20:41:57.101Z,20.56
2023-05-17T20:44:26.078Z,20.51
2023-05-17T20:46:54.511Z,20.49
2023-05-17T20:49:22.175Z,20.47
2023-05-17T20:51:49.348Z,20.44
2023-05-17T20:54:16.622Z,20.41
2023-05-17T20:56:43.953Z,20.38
2023-05-17T20:59:11.648Z,20.33
2023-05-17T21:01:39.132Z,20.29
2023-05-17T21:04:06.834Z,20.25
2023-05-17T21:06:34.672Z,20.21
2023-05-17T21:09:02.893Z,20.21
2023-05-17T21:11:30.191Z,20.67
2023-05-17T21:14:00.276Z,20.85
2023-05-17T21:16:27.526Z,20.87
2023-05-17T21:18:54.798Z,20.81
2023-05-17T21:21:21.872Z,20.75
2023-05-17T21:23:49.205Z,20.80
2023-05-17T21:26:16.476Z,20.80
2023-05-17T21:28:43.669Z,20.28
2023-05-17T21:31:11.407Z,20.03
2023-05-17T21:33:38.831Z,19.97
2023-05-17T21:36:06.370Z,19.92
2023-05-17T21:38:33.621Z,19.87
2023-05-17T21:41:01.006Z,19.77
2023-05-17T21:43:28.190Z,19.71
2023-05-17T21:45:55.412Z,19.65
2023-05-17T21:48:23.210Z,19.61
2023-05-17T21:50:50.381Z,19.58
2023-05-17T21:53:17.505Z,19.53
2023-05-17T21:55:56.897Z,19.46
2023-05-17T21:58:29.083Z,19.45
2023-05-17T22:00:56.525Z,19.45
2023-05-17T22:03:24.031Z,19.43
2023-05-17T22:05:52.689Z,19.39
2023-05-17T22:08:19.918Z,19.33
2023-05-17T22:10:47.827Z,19.27
2023-05-17T22:13:18.493Z,19.21
2023-05-17T22:15:46.000Z,19.17
2023-05-17T22:18:14.034Z,19.15
2023-05-17T22:20:41.317Z,19.15
2023-05-17T22:23:08.556Z,19.12
2023-05-17T22:25:36.260Z,19.10
2023-05-17T22:28:03.824Z,19.07
2023-05-17T22:30:31.062Z,19.03
2023-05-17T22:32:58.836Z,19.05
2023-05-17T22:35:26.715Z,19.05
2023-05-17T22:37:53.919Z,19.01
2023-05-17T22:40:21.790Z,19.00
2023-05-17T22:42:50.427Z,18.99
2023-05-17T22:45:18.618Z,18.96
2023-05-17T22:47:47.478Z,18.98
2023-05-17T22:50:16.022Z,18.98
2023-05-17T22:52:43.280Z,18.93
2023-05-17T22:55:11.593Z,18.91
2023-05-17T22:57:38.820Z,18.86
2023-05-17T23:00:08.967Z,18.82
2023-05-17T23:02:36.549Z,18.78
2023-05-17T23:05:03.962Z,18.78
2023-05-17T23:07:37.214Z,18.86
2023-05-17T23:10:05.459Z,18.96
2023-05-17T23:12:33.524Z,19.02
2023-05-17T23:15:00.745Z,19.00
2023-05-17T23:17:32.722Z,18.94
2023-05-17T23:20:07.141Z,18.92
2023-05-17T23:22:34.657Z,19.00
2023-05-17T23:25:03.759Z,19.02
2023-05-17T23:27:30.902Z,18.97
2023-05-17T23:29:58.761Z,18.94
2023-05-17T23:32:26.021Z,18.88
2023-05-17T23:35:04.154Z,18.84
2023-05-17T23:37:34.590Z,18.79
2023-05-17T23:40:01.918Z,18.73
2023-05-17T23:42:35.165Z,18.69
2023-05-17T23:45:02.716Z,18.63
2023-05-17T23:47:29.755Z,18.57
2023-05-17T23:49:57.081Z,18.55
2023-05-17T23:52:24.717Z,18.52
2023-05-17T23:54:51.773Z,18.44
2023-05-17T23:57:18.931Z,18.40
2023-05-17T23:59:46.271Z,18.37
